Time;durP1;ratioP1;P1;durP2;ratioP2;P2;SDS_P1;SDS_P2;PMS_P1;PMS_P2;Temp;Humidity;BMP_temperature;BMP_pressure;BME280_temperature;BME280_humidity;BME280_pressure;Samples;Min_cycle;Max_cycle;Signal;HPM_P1;HPM_P2
2023/10/16 00:00:47;;;;;;;34.30;32.47;;;11.10;99.90;;;;;;4965984;28;20039;-73
2023/10/16 00:03:17;;;;;;;34.15;32.42;;;11.10;99.90;;;;;;4964180;28;20496;-73
2023/10/16 00:05:51;;;;;;;34.88;32.97;;;11.00;99.90;;;;;;4966807;28;20047;-72
2023/10/16 00:08:18;;;;;;;33.63;31.80;;;10.90;99.90;;;;;;4960411;28;20031;-72
2023/10/16 00:11:02;;;;;;;34.72;32.88;;;11.00;99.90;;;;;;4963840;28;20034;-72
2023/10/16 00:13:29;;;;;;;32.80;31.00;;;11.00;99.90;;;;;;4970667;28;20031;-72
2023/10/16 00:15:56;;;;;;;33.45;31.58;;;10.80;99.90;;;;;;4960567;28;20042;-73
2023/10/16 00:18:24;;;;;;;32.45;30.75;;;11.00;99.90;;;;;;4954325;29;20055;-72
2023/10/16 00:20:51;;;;;;;32.80;30.70;;;10.90;99.90;;;;;;4961120;28;20050;-72
2023/10/16 00:23:18;;;;;;;32.90;31.25;;;10.90;99.90;;;;;;4975015;28;20038;-72
2023/10/16 00:25:44;;;;;;;32.65;30.88;;;10.90;99.90;;;;;;4974689;28;20070;-72
2023/10/16 00:28:11;;;;;;;32.78;30.77;;;10.80;99.90;;;;;;4974786;28;20038;-72
2023/10/16 00:30:40;;;;;;;31.48;29.80;;;10.70;99.90;;;;;;4970167;28;20055;-72
2023/10/16 00:33:13;;;;;;;33.70;31.80;;;10.70;99.90;;;;;;4971918;28;20065;-72
2023/10/16 00:35:39;;;;;;;32.40;30.80;;;10.70;99.90;;;;;;4964521;28;20046;-72
2023/10/16 00:38:13;;;;;;;32.72;30.95;;;10.70;99.90;;;;;;4966485;28;20027;-73
2023/10/16 00:41:05;;;;;;;33.80;32.10;;;10.80;99.90;;;;;;4967880;28;20065;-72
2023/10/16 00:43:34;;;;;;;36.00;34.17;;;10.80;99.90;;;;;;4955683;29;20039;-72
2023/10/16 00:46:08;;;;;;;35.97;34.03;;;10.80;99.90;;;;;;4954720;28;20043;-72
2023/10/16 00:48:35;;;;;;;38.28;36.10;;;10.70;99.90;;;;;;4955444;28;20380;-72
2023/10/16 00:51:16;;;;;;;36.13;34.33;;;10.70;99.90;;;;;;4961493;28;20031;-72
2023/10/16 00:53:42;;;;;;;30.55;28.95;;;10.80;99.90;;;;;;4973830;28;20045;-72
2023/10/16 00:56:09;;;;;;;34.03;32.33;;;10.50;99.90;;;;;;4966788;28;20047;-72
2023/10/16 00:58:35;;;;;;;34.70;32.80;;;10.40;99.90;;;;;;4955175;28;20030;-72
2023/10/16 01:01:08;;;;;;;33.75;31.63;;;10.30;99.90;;;;;;4966457;28;20036;-72
2023/10/16 01:03:36;;;;;;;33.00;31.20;;;10.30;99.90;;;;;;4973811;28;20066;-72
2023/10/16 01:06:03;;;;;;;31.83;30.15;;;10.30;99.90;;;;;;4967145;28;20030;-72
2023/10/16 01:08:30;;;;;;;31.88;30.17;;;10.30;99.90;;;;;;4968989;28;20043;-73
2023/10/16 01:10:59;;;;;;;33.38;31.42;;;10.20;99.90;;;;;;4973682;28;20055;-72
2023/10/16 01:13:28;;;;;;;32.15;30.35;;;10.20;99.90;;;;;;4974164;28;20023;-72
2023/10/16 01:15:56;;;;;;;32.72;30.85;;;10.30;99.90;;;;;;4967193;28;20050;-72
2023/10/16 01:18:23;;;;;;;30.30;28.80;;;10.30;99.90;;;;;;4953284;29;20043;-72
2023/10/16 01:20:50;;;;;;;31.58;29.80;;;10.20;99.90;;;;;;4953406;28;20035;-72
2023/10/16 01:23:22;;;;;;;32.58;30.67;;;10.30;99.90;;;;;;4954714;28;20039;-72
2023/10/16 01:25:49;;;;;;;31.15;29.55;;;10.30;99.90;;;;;;4965302;28;20050;-73
2023/10/16 01:28:18;;;;;;;31.95;30.33;;;10.30;99.90;;;;;;4954687;29;20030;-72
2023/10/16 01:30:47;;;;;;;30.90;29.27;;;10.30;99.90;;;;;;4953510;28;20039;-72
2023/10/16 01:33:16;;;;;;;30.52;28.77;;;10.30;99.90;;;;;;4965368;28;20030;-72
2023/10/16 01:35:43;;;;;;;30.88;29.27;;;10.30;99.90;;;;;;4962921;28;20047;-72
2023/10/16 01:38:15;;;;;;;31.02;29.33;;;10.20;99.90;;;;;;4974011;28;20022;-72
2023/10/16 01:41:04;;;;;;;32.17;30.45;;;10.30;99.90;;;;;;4968065;28;20035;-72
2023/10/16 01:43:31;;;;;;;30.90;29.30;;;10.30;99.90;;;;;;4953729;29;20045;-72
2023/10/16 01:46:00;;;;;;;30.98;29.25;;;10.30;99.90;;;;;;4952323;28;20035;-72
2023/10/16 01:48:29;;;;;;;31.83;29.98;;;10.20;99.90;;;;;;4968926;28;20023;-72
2023/10/16 01:50:56;;;;;;;30.27;28.67;;;10.30;99.90;;;;;;4959784;28;20022;-72
2023/10/16 01:53:36;;;;;;;30.15;28.55;;;10.10;99.90;;;;;;4972576;28;20041;-72
2023/10/16 01:56:15;;;;;;;30.20;28.50;;;10.10;99.90;;;;;;4966288;28;20030;-72
2023/10/16 01:58:42;;;;;;;29.38;27.92;;;10.10;99.90;;;;;;4954287;28;20385;-72
2023/10/16 02:01:18;;;;;;;28.88;27.48;;;10.10;99.90;;;;;;4956525;28;20042;-72
2023/10/16 02:03:45;;;;;;;28.83;27.00;;;10.00;99.90;;;;;;4970913;28;20491;-72
2023/10/16 02:06:12;;;;;;;27.10;25.50;;;10.00;99.90;;;;;;4966882;28;20035;-73
2023/10/16 02:08:41;;;;;;;31.83;30.13;;;10.00;99.90;;;;;;4959959;28;20384;-72
2023/10/16 02:11:10;;;;;;;27.83;26.05;;;9.90;99.90;;;;;;4961270;28;20041;-72
2023/10/16 02:13:37;;;;;;;27.52;25.83;;;9.80;99.90;;;;;;4956485;28;20373;-73
2023/10/16 02:16:06;;;;;;;29.48;27.77;;;9.80;99.90;;;;;;4965341;28;20407;-72
2023/10/16 02:18:40;;;;;;;29.45;27.95;;;9.80;99.90;;;;;;4954118;29;20039;-72
2023/10/16 02:21:11;;;;;;;27.27;25.88;;;9.70;99.90;;;;;;4955365;28;20031;-70
2023/10/16 02:23:38;;;;;;;27.85;26.38;;;9.90;99.90;;;;;;4970925;28;20042;-70
2023/10/16 02:26:06;;;;;;;27.73;26.33;;;9.80;99.90;;;;;;4969057;28;20047;-70
2023/10/16 02:28:33;;;;;;;30.20;28.60;;;9.80;99.90;;;;;;4954321;28;20035;-71
2023/10/16 02:31:05;;;;;;;28.38;26.67;;;9.80;99.90;;;;;;4959782;28;20035;-71
2023/10/16 02:33:35;;;;;;;26.95;25.38;;;9.70;99.90;;;;;;4973282;28;20050;-70
2023/10/16 02:36:02;;;;;;;27.58;26.17;;;9.70;99.90;;;;;;4973232;28;20419;-70
2023/10/16 02:38:28;;;;;;;27.48;25.90;;;9.70;99.90;;;;;;4973111;28;20396;-70
2023/10/16 02:41:03;;;;;;;26.73;25.42;;;9.70;99.90;;;;;;4967223;28;20038;-70
2023/10/16 02:43:29;;;;;;;26.67;25.00;;;9.70;99.90;;;;;;4953708;28;20039;-70
2023/10/16 02:45:56;;;;;;;27.20;25.70;;;9.80;99.90;;;;;;4952290;28;20027;-70
2023/10/16 02:48:22;;;;;;;28.77;26.73;;;9.80;99.90;;;;;;4954048;28;20098;-70
2023/10/16 02:50:56;;;;;;;27.08;25.58;;;9.80;99.90;;;;;;4954150;29;20031;-70
2023/10/16 02:53:25;;;;;;;29.65;28.02;;;9.70;99.90;;;;;;4953809;28;20055;-70
2023/10/16 02:55:53;;;;;;;26.17;24.88;;;9.70;99.90;;;;;;4953448;28;20055;-71
2023/10/16 02:58:23;;;;;;;29.70;28.10;;;9.80;99.90;;;;;;4960238;28;20039;-70
2023/10/16 03:00:53;;;;;;;27.48;25.92;;;9.70;99.90;;;;;;4964767;28;20034;-70
2023/10/16 03:03:20;;;;;;;26.83;25.40;;;9.70;99.90;;;;;;4969783;28;20047;-70
2023/10/16 03:05:49;;;;;;;27.60;26.20;;;9.70;99.90;;;;;;4965502;28;20032;-70
2023/10/16 03:08:18;;;;;;;27.00;25.60;;;9.70;99.90;;;;;;4972089;28;20050;-70
2023/10/16 03:10:45;;;;;;;26.10;24.63;;;9.60;99.90;;;;;;4961935;28;20042;-69
2023/10/16 03:13:14;;;;;;;26.58;25.13;;;9.60;99.90;;;;;;4971614;28;20422;-70
2023/10/16 03:15:47;;;;;;;26.83;25.42;;;9.60;99.90;;;;;;4959682;28;20039;-70
2023/10/16 03:18:17;;;;;;;30.58;29.08;;;9.60;99.90;;;;;;4976288;28;20427;-72
2023/10/16 03:20:44;;;;;;;25.80;24.40;;;9.60;99.90;;;;;;4967885;28;20025;-71
2023/10/16 03:23:12;;;;;;;25.88;24.38;;;9.60;99.90;;;;;;4976307;28;20038;-72
2023/10/16 03:28:13;;;;;;;27.83;26.25;;;9.60;99.90;;;;;;4980029;28;20480;-72
2023/10/16 03:30:42;;;;;;;30.30;28.63;;;9.60;99.90;;;;;;4970234;28;20043;-72
2023/10/16 03:33:08;;;;;;;26.90;25.23;;;9.60;99.90;;;;;;4970041;28;20039;-72
2023/10/16 03:35:38;;;;;;;30.13;28.33;;;9.60;99.90;;;;;;4956525;28;20035;-72
2023/10/16 03:38:20;;;;;;;26.20;24.42;;;9.60;99.90;;;;;;4971561;28;20502;-72
2023/10/16 03:40:51;;;;;;;29.98;28.35;;;9.60;99.90;;;;;;4973851;28;20039;-72
2023/10/16 03:43:19;;;;;;;29.30;27.50;;;9.60;99.90;;;;;;4975527;28;20038;-73
2023/10/16 03:45:45;;;;;;;31.73;30.13;;;9.60;99.90;;;;;;4969850;28;20035;-72
2023/10/16 03:48:11;;;;;;;32.63;30.92;;;9.60;99.90;;;;;;4962090;28;20050;-72
2023/10/16 03:50:39;;;;;;;32.28;30.48;;;9.40;99.90;;;;;;4975437;28;20498;-72
2023/10/16 03:53:08;;;;;;;31.05;29.45;;;9.40;99.90;;;;;;4974572;28;20031;-72
2023/10/16 03:55:41;;;;;;;32.85;30.88;;;9.50;99.90;;;;;;4974218;28;20035;-72
2023/10/16 03:58:07;;;;;;;32.35;30.45;;;9.40;99.90;;;;;;4974937;28;20030;-73
2023/10/16 04:00:50;;;;;;;32.88;31.10;;;9.40;99.90;;;;;;4973936;28;20408;-72
2023/10/16 04:03:18;;;;;;;30.77;29.23;;;9.50;99.90;;;;;;4970381;28;20043;-73
2023/10/16 04:05:45;;;;;;;31.77;29.92;;;9.50;99.90;;;;;;4961087;28;20042;-72
2023/10/16 04:08:14;;;;;;;29.25;27.52;;;9.50;99.90;;;;;;4974977;28;20058;-72
2023/10/16 04:10:46;;;;;;;27.25;25.83;;;9.60;99.90;;;;;;4971042;28;20035;-72
2023/10/16 04:13:14;;;;;;;26.15;24.75;;;9.60;99.90;;;;;;4959135;28;20496;-73
2023/10/16 04:23:58;;;;;;;25.60;24.10;;;9.50;99.90;;;;;;4959105;28;20064;-72
2023/10/16 04:31:45;;;;;;;25.65;23.90;;;9.30;99.90;;;;;;4970382;28;20062;-71
2023/10/16 04:34:24;;;;;;;24.85;23.50;;;9.30;99.90;;;;;;4973169;28;20043;-71
2023/10/16 04:48:47;;;;;;;27.38;25.88;;;9.30;99.90;;;;;;4940369;28;20059;-71
2023/10/16 05:06:14;;;;;;;25.67;24.27;;;9.10;99.90;;;;;;4960561;28;20023;-70
2023/10/16 05:09:53;;;;;;;26.08;24.52;;;9.10;99.90;;;;;;4971320;28;20045;-70
2023/10/16 06:14:35;;;;;;;23.08;21.65;;;8.60;99.90;;;;;;4958607;28;20039;-72
2023/10/16 06:17:01;;;;;;;21.55;19.90;;;8.60;99.90;;;;;;4953669;28;20499;-72
2023/10/16 06:19:28;;;;;;;23.77;22.42;;;8.60;99.90;;;;;;4953958;29;20503;-71
2023/10/16 06:21:56;;;;;;;25.42;23.85;;;8.60;99.90;;;;;;4972846;28;20476;-72
2023/10/16 06:24:33;;;;;;;28.75;27.02;;;8.50;99.90;;;;;;4973422;28;20039;-72
2023/10/16 06:27:00;;;;;;;24.35;22.83;;;8.50;99.90;;;;;;4964431;28;20037;-73
2023/10/16 06:29:40;;;;;;;25.10;23.67;;;8.40;99.90;;;;;;4953301;28;20046;-72
2023/10/16 06:32:07;;;;;;;34.03;32.10;;;8.40;99.90;;;;;;4953355;28;20412;-72
2023/10/16 06:34:34;;;;;;;29.63;27.83;;;8.50;99.90;;;;;;4953679;28;20046;-73
2023/10/16 06:37:06;;;;;;;28.30;26.48;;;8.40;99.90;;;;;;4972672;28;20073;-73
2023/10/16 06:39:35;;;;;;;26.13;24.48;;;8.40;99.90;;;;;;4958219;28;20046;-72
2023/10/16 06:42:05;;;;;;;25.23;23.70;;;8.40;99.90;;;;;;4958056;28;20059;-73
2023/10/16 06:44:34;;;;;;;26.75;25.17;;;8.40;99.90;;;;;;4956670;29;20023;-73
2023/10/16 06:47:00;;;;;;;23.50;22.02;;;8.40;99.90;;;;;;4969306;28;20039;-73
2023/10/16 06:49:35;;;;;;;27.20;25.60;;;8.40;99.90;;;;;;4975325;28;20369;-72
2023/10/16 06:52:06;;;;;;;26.38;24.77;;;8.40;99.90;;;;;;4976609;28;20042;-73
2023/10/16 06:54:37;;;;;;;25.90;24.15;;;8.50;99.90;;;;;;4976805;28;20034;-73
2023/10/16 06:57:12;;;;;;;27.20;25.70;;;8.50;99.90;;;;;;4977009;28;20050;-73
2023/10/16 06:59:41;;;;;;;24.38;23.02;;;8.50;99.90;;;;;;4972352;28;20388;-73
2023/10/16 07:02:15;;;;;;;25.27;23.88;;;8.50;99.90;;;;;;4955944;28;20047;-70
2023/10/16 07:04:47;;;;;;;25.98;24.52;;;8.50;99.90;;;;;;4957488;28;20365;-71
2023/10/16 07:07:16;;;;;;;26.50;24.88;;;8.50;99.90;;;;;;4957641;28;20488;-71
2023/10/16 07:09:48;;;;;;;25.45;24.00;;;8.60;99.90;;;;;;4961881;28;20051;-71
2023/10/16 07:12:18;;;;;;;27.27;25.88;;;8.60;99.90;;;;;;4961538;28;20031;-71
2023/10/16 07:14:47;;;;;;;24.65;23.25;;;8.60;99.90;;;;;;4957471;28;20032;-71
2023/10/16 07:17:13;;;;;;;23.92;22.42;;;8.60;99.90;;;;;;4961291;28;20054;-72
2023/10/16 07:19:41;;;;;;;27.35;25.75;;;8.70;99.90;;;;;;4975642;28;20035;-72
2023/10/16 07:22:10;;;;;;;28.10;26.45;;;8.70;99.90;;;;;;4975836;28;20043;-71
2023/10/16 07:24:37;;;;;;;29.10;27.20;;;8.80;99.90;;;;;;4967588;28;20030;-72
2023/10/16 07:27:12;;;;;;;26.85;25.02;;;8.70;99.90;;;;;;4972312;28;20035;-72
2023/10/16 07:29:41;;;;;;;25.42;24.13;;;8.70;99.90;;;;;;4976278;28;20050;-71
2023/10/16 07:32:08;;;;;;;26.40;24.70;;;8.80;99.90;;;;;;4963603;28;20038;-71
2023/10/16 07:34:38;;;;;;;24.08;22.65;;;8.70;99.90;;;;;;4955541;28;20043;-72
2023/10/16 07:37:07;;;;;;;27.90;26.10;;;8.80;99.90;;;;;;4971689;28;20047;-72
2023/10/16 07:39:36;;;;;;;25.98;24.50;;;8.80;99.90;;;;;;4972691;28;20035;-72
2023/10/16 07:42:03;;;;;;;25.58;24.08;;;8.80;99.90;;;;;;4971553;28;20046;-72
2023/10/16 07:44:29;;;;;;;24.63;23.23;;;8.80;99.90;;;;;;4976004;28;20027;-71
2023/10/16 07:46:55;;;;;;;28.90;27.20;;;8.80;99.90;;;;;;4958003;28;20059;-69
2023/10/16 07:49:25;;;;;;;27.63;25.98;;;8.90;99.90;;;;;;4956874;29;20054;-69
2023/10/16 07:51:52;;;;;;;28.23;26.43;;;9.10;99.90;;;;;;4964448;28;20053;-72
2023/10/16 07:54:20;;;;;;;39.80;37.78;;;9.30;99.90;;;;;;4974610;28;20298;-74
2023/10/16 07:56:49;;;;;;;26.58;25.05;;;9.30;99.90;;;;;;4973692;28;20058;-71
2023/10/16 07:59:21;;;;;;;28.33;26.63;;;9.50;99.90;;;;;;4975884;28;20039;-72
2023/10/16 08:01:52;;;;;;;42.25;39.97;;;9.60;99.90;;;;;;4974330;28;20058;-70
2023/10/16 08:06:55;;;;;;;46.05;43.65;;;9.40;99.90;;;;;;4981487;28;20041;-72
2023/10/16 08:11:57;;;;;;;40.20;37.80;;;9.20;99.90;;;;;;4963155;28;20038;-72
2023/10/16 08:14:24;;;;;;;39.03;36.72;;;9.20;99.90;;;;;;4962306;28;20023;-72
2023/10/16 08:16:58;;;;;;;42.35;40.15;;;9.10;99.90;;;;;;4965516;28;20043;-72
2023/10/16 08:19:31;;;;;;;42.25;40.05;;;9.10;99.90;;;;;;4975538;28;20045;-72
2023/10/16 08:21:58;;;;;;;44.75;42.42;;;9.10;99.90;;;;;;4962167;28;20047;-72
2023/10/16 08:24:24;;;;;;;49.33;46.83;;;9.10;99.90;;;;;;4956174;28;20388;-72
2023/10/16 08:27:01;;;;;;;42.10;39.80;;;9.20;99.90;;;;;;4968799;28;20042;-72
2023/10/16 08:29:34;;;;;;;42.65;40.20;;;9.20;99.90;;;;;;4970892;28;20031;-72
2023/10/16 08:34:45;;;;;;;38.25;35.63;;;9.20;99.90;;;;;;4979664;28;20419;-71
2023/10/16 08:37:13;;;;;;;47.65;44.80;;;9.30;99.90;;;;;;4974545;28;20050;-72
2023/10/16 08:39:47;;;;;;;43.05;40.65;;;9.40;99.90;;;;;;4974924;28;20069;-72
2023/10/16 08:42:20;;;;;;;42.75;40.33;;;9.40;99.90;;;;;;4956264;28;20600;-72
2023/10/16 08:44:51;;;;;;;48.92;46.15;;;9.50;99.90;;;;;;4969098;28;20050;-71
2023/10/16 08:47:24;;;;;;;48.72;46.10;;;9.50;99.90;;;;;;4955995;28;20389;-72
2023/10/16 08:49:56;;;;;;;52.42;49.63;;;9.50;99.90;;;;;;4953990;29;20039;-72
2023/10/16 08:52:25;;;;;;;49.05;46.35;;;9.50;99.90;;;;;;4955252;28;20043;-71
2023/10/16 08:57:22;;;;;;;53.97;51.10;;;9.60;99.90;;;;;;4974584;28;20039;-72
2023/10/16 08:59:51;;;;;;;;;;;9.70;99.90;;;;;;4973905;28;20039;-71
2023/10/16 09:02:17;;;;;;;38.55;36.63;;;9.70;99.90;;;;;;4956741;28;19911;-71
2023/10/16 09:04:49;;;;;;;53.05;50.33;;;9.80;99.90;;;;;;4953873;29;20027;-71
2023/10/16 09:07:19;;;;;;;60.30;56.90;;;9.80;99.90;;;;;;4953580;28;20096;-69
2023/10/16 09:09:48;;;;;;;47.97;45.45;;;9.90;99.90;;;;;;4954752;28;20059;-71
2023/10/16 09:12:25;;;;;;;50.08;47.40;;;9.90;99.90;;;;;;4969074;28;20398;-72
2023/10/16 09:14:52;;;;;;;42.47;40.13;;;9.90;99.90;;;;;;4971605;28;20054;-71
2023/10/16 09:17:19;;;;;;;45.67;43.38;;;10.00;99.90;;;;;;4956161;28;20055;-72
2023/10/16 09:19:49;;;;;;;46.55;44.10;;;10.00;99.90;;;;;;4956224;28;20044;-70
2023/10/16 09:22:17;;;;;;;51.60;48.78;;;10.20;99.90;;;;;;4971317;28;20514;-71
2023/10/16 09:24:46;;;;;;;50.92;46.75;;;10.20;99.90;;;;;;4973308;28;20043;-71
2023/10/16 09:27:17;;;;;;;50.25;47.33;;;10.30;99.90;;;;;;4957278;28;20472;-71
2023/10/16 09:29:53;;;;;;;48.58;46.03;;;10.30;99.90;;;;;;4954062;28;20050;-71
2023/10/16 09:32:27;;;;;;;48.92;46.15;;;10.40;99.90;;;;;;4953651;28;20453;-71
2023/10/16 09:34:53;;;;;;;49.83;46.92;;;10.50;99.90;;;;;;4956718;28;20051;-71
2023/10/16 09:37:24;;;;;;;48.83;46.08;;;10.60;99.90;;;;;;4973790;28;20059;-68
2023/10/16 09:39:53;;;;;;;51.60;48.75;;;10.70;99.90;;;;;;4973289;28;20066;-71
2023/10/16 09:42:25;;;;;;;49.60;46.85;;;10.70;99.90;;;;;;4968451;28;20039;-72
2023/10/16 09:44:56;;;;;;;50.72;48.03;;;10.80;99.90;;;;;;4973716;28;20042;-70
2023/10/16 09:47:27;;;;;;;50.97;48.45;;;10.90;99.90;;;;;;4972305;28;20050;-71
2023/10/16 09:49:59;;;;;;;53.20;50.45;;;10.90;99.90;;;;;;4958571;28;20039;-71
2023/10/16 09:52:32;;;;;;;52.80;50.08;;;11.00;99.90;;;;;;4953345;28;20047;-71
2023/10/16 09:55:05;;;;;;;50.92;48.42;;;11.10;99.90;;;;;;4954275;28;20046;-71
2023/10/16 09:57:31;;;;;;;54.95;52.15;;;11.10;99.90;;;;;;4958217;28;20683;-71
2023/10/16 10:00:03;;;;;;;53.90;51.00;;;11.10;99.90;;;;;;4968002;28;20043;-71
2023/10/16 10:02:35;;;;;;;57.03;54.05;;;11.10;99.90;;;;;;4941915;29;20036;-71
2023/10/16 10:05:09;;;;;;;53.70;50.83;;;11.10;99.90;;;;;;4933993;29;20051;-71
2023/10/16 10:07:47;;;;;;;53.70;50.80;;;11.20;99.90;;;;;;4930532;29;20039;-71
2023/10/16 10:13:08;;;;;;;52.47;49.92;;;11.30;99.90;;;;;;4940562;29;20039;-71
2023/10/16 10:15:45;;;;;;;52.65;49.92;;;11.40;99.90;;;;;;4952964;28;20039;-71
2023/10/16 10:20:58;;;;;;;54.88;52.08;;;11.40;99.90;;;;;;4958123;28;20038;-71
2023/10/16 10:23:25;;;;;;;57.08;54.05;;;11.50;99.90;;;;;;4954222;29;20416;-70
2023/10/16 10:25:54;;;;;;;54.53;51.70;;;11.60;99.90;;;;;;4965120;28;20046;-71
2023/10/16 10:28:32;;;;;;;56.53;53.60;;;11.70;99.90;;;;;;4971018;28;20507;-71
2023/10/16 10:31:05;;;;;;;59.85;56.72;;;11.90;99.90;;;;;;4959988;28;20484;-71
2023/10/16 10:33:37;;;;;;;63.28;60.20;;;12.10;99.90;;;;;;4967537;28;20473;-71
2023/10/16 10:36:32;;;;;;;68.55;65.05;;;12.20;99.90;;;;;;4953060;28;20045;-71
2023/10/16 10:39:21;;;;;;;74.90;71.13;;;12.30;99.90;;;;;;4966651;28;20054;-71
2023/10/16 10:41:54;;;;;;;61.88;58.83;;;12.30;99.90;;;;;;4968462;28;20043;-72
2023/10/16 10:44:32;;;;;;;73.18;69.60;;;12.30;99.90;;;;;;4972817;28;20405;-71
2023/10/16 10:47:00;;;;;;;66.38;63.08;;;12.40;99.90;;;;;;4966623;28;20046;-69
2023/10/16 10:49:33;;;;;;;73.30;69.57;;;12.50;99.90;;;;;;4972418;28;20043;-69
2023/10/16 10:52:12;;;;;;;81.18;76.85;;;12.60;99.90;;;;;;4956397;28;20027;-69
2023/10/16 10:54:48;;;;;;;63.65;60.42;;;12.70;99.90;;;;;;4953597;29;20050;-70
2023/10/16 10:57:18;;;;;;;64.80;61.40;;;12.70;99.90;;;;;;4952477;28;20055;-70
2023/10/16 10:59:47;;;;;;;73.43;69.40;;;12.90;99.60;;;;;;4952089;28;20091;-70
2023/10/16 11:04:53;;;;;;;61.85;58.50;;;13.20;99.90;;;;;;4960842;28;20062;-70
2023/10/16 11:07:25;;;;;;;68.55;65.05;;;13.20;99.60;;;;;;4968638;28;20049;-70
2023/10/16 11:09:52;;;;;;;70.53;66.93;;;13.20;99.60;;;;;;4970529;28;20047;-69
2023/10/16 11:12:24;;;;;;;70.88;67.15;;;13.40;99.60;;;;;;4954922;28;20031;-69
2023/10/16 11:14:51;;;;;;;61.53;58.03;;;13.40;99.50;;;;;;4953721;28;20047;-69
2023/10/16 11:17:34;;;;;;;58.25;55.33;;;13.50;99.10;;;;;;4963381;28;20054;-69
2023/10/16 11:20:15;;;;;;;67.38;64.00;;;13.50;98.60;;;;;;4971935;28;20038;-69
2023/10/16 11:22:45;;;;;;;65.22;61.72;;;13.40;98.90;;;;;;4974607;28;20043;-69
2023/10/16 11:25:14;;;;;;;63.83;60.63;;;13.40;98.90;;;;;;4975084;28;20078;-69
2023/10/16 11:27:43;;;;;;;57.15;54.28;;;13.50;98.80;;;;;;4975774;28;20059;-69
2023/10/16 11:30:14;;;;;;;1999.90;999.90;;;13.60;97.90;;;;;;4975425;28;20031;-69
2023/10/16 11:32:47;;;;;;;55.08;52.17;;;13.70;98.00;;;;;;4957574;28;20046;-70
2023/10/16 11:35:14;;;;;;;62.28;59.00;;;13.80;97.70;;;;;;4954906;28;20043;-71
2023/10/16 11:37:43;;;;;;;88.32;83.38;;;13.90;97.70;;;;;;4970365;28;20051;-70
2023/10/16 11:40:18;;;;;;;54.28;51.45;;;14.00;97.70;;;;;;4956305;28;20046;-70
2023/10/16 11:42:52;;;;;;;1999.90;999.90;;;14.00;97.20;;;;;;4956119;28;20031;-70
2023/10/16 11:45:23;;;;;;;1514.95;764.20;;;14.10;97.40;;;;;;4956646;28;20058;-70
2023/10/16 11:48:20;;;;;;;;;;;14.00;97.40;;;;;;4975104;28;20492;-70
2023/10/16 11:50:50;;;;;;;75.43;71.15;;;14.10;96.70;;;;;;4975531;28;20282;-69
2023/10/16 11:53:23;;;;;;;1999.90;999.90;;;14.20;96.50;;;;;;4972589;28;20054;-72
2023/10/16 11:55:50;;;;;;;1999.90;999.90;;;14.20;96.30;;;;;;4962631;28;20034;-71
2023/10/16 11:58:16;;;;;;;1999.90;999.90;;;14.20;97.00;;;;;;4975452;28;20047;-71
2023/10/16 12:00:57;;;;;;;1999.90;999.90;;;14.20;96.80;;;;;;4970079;28;20054;-71
2023/10/16 12:03:26;;;;;;;1999.90;999.90;;;14.30;96.40;;;;;;4955993;28;20043;-71
2023/10/16 12:05:53;;;;;;;1999.90;999.90;;;14.30;96.50;;;;;;4955629;28;20038;-71
2023/10/16 12:08:21;;;;;;;1999.90;999.90;;;14.40;96.20;;;;;;4954387;29;20047;-71
2023/10/16 12:10:48;;;;;;;1999.90;999.90;;;14.40;96.20;;;;;;4955173;28;20046;-71
2023/10/16 12:13:14;;;;;;;1999.90;999.90;;;14.60;95.90;;;;;;4964248;28;20038;-72
2023/10/16 12:15:46;;;;;;;1999.90;999.90;;;14.60;95.60;;;;;;4970069;28;20043;-71
2023/10/16 12:18:13;;;;;;;1999.90;999.90;;;14.60;95.60;;;;;;4955605;28;20172;-70
2023/10/16 12:20:39;;;;;;;1999.90;999.90;;;14.60;95.90;;;;;;4942352;28;20041;-71
2023/10/16 12:23:06;;;;;;;1999.90;999.90;;;14.70;96.20;;;;;;4974510;28;20030;-71
2023/10/16 12:25:35;;;;;;;1999.90;999.90;;;14.80;96.20;;;;;;4974568;28;20389;-71
2023/10/16 12:28:02;;;;;;;1999.90;999.90;;;14.90;96.10;;;;;;4974798;28;20039;-71
2023/10/16 12:30:28;;;;;;;1999.90;999.90;;;15.00;95.70;;;;;;4971670;28;20035;-70
2023/10/16 12:32:54;;;;;;;1999.90;999.90;;;15.00;95.30;;;;;;4967619;28;20392;-70
2023/10/16 12:35:22;;;;;;;1999.90;999.90;;;15.10;95.50;;;;;;4974250;28;20484;-70
2023/10/16 12:37:55;;;;;;;1999.90;999.90;;;15.10;94.80;;;;;;4974199;28;20058;-70
2023/10/16 12:40:26;;;;;;;1999.90;999.90;;;15.10;95.10;;;;;;4974021;28;20476;-70
2023/10/16 12:42:58;;;;;;;1999.90;999.90;;;15.20;95.50;;;;;;4974909;28;20047;-70
2023/10/16 12:45:24;;;;;;;1999.90;999.90;;;15.20;94.80;;;;;;4971720;28;20043;-70
2023/10/16 12:47:51;;;;;;;1999.90;999.90;;;15.30;95.30;;;;;;4954766;28;20054;-70
2023/10/16 12:50:20;;;;;;;1999.90;999.90;;;15.30;95.00;;;;;;4955661;28;20039;-70
2023/10/16 12:52:47;;;;;;;1999.90;999.90;;;15.30;94.50;;;;;;4973633;28;20043;-70
2023/10/16 12:55:16;;;;;;;1999.90;999.90;;;15.40;93.80;;;;;;4973423;28;20415;-70
2023/10/16 12:57:44;;;;;;;1999.90;999.90;;;15.40;93.40;;;;;;4954172;28;20048;-68
2023/10/16 13:00:46;;;;;;;1999.90;999.90;;;15.30;93.60;;;;;;4954090;28;20047;-70
2023/10/16 13:03:13;;;;;;;1999.90;999.90;;;15.30;93.20;;;;;;4955789;28;20059;-70
2023/10/16 13:05:42;;;;;;;1999.90;999.90;;;15.40;93.20;;;;;;4954079;28;20050;-69
2023/10/16 13:08:08;;;;;;;1999.90;999.90;;;15.50;93.30;;;;;;4970158;28;20050;-70
2023/10/16 13:10:35;;;;;;;1999.90;999.90;;;15.50;93.20;;;;;;4970490;28;20044;-69
2023/10/16 13:13:02;;;;;;;1999.90;999.90;;;15.60;93.10;;;;;;4961572;28;20065;-69
2023/10/16 13:15:31;;;;;;;1999.90;999.90;;;15.70;92.90;;;;;;4971417;28;20041;-70
2023/10/16 13:17:58;;;;;;;1999.90;999.90;;;15.70;92.90;;;;;;4972733;28;20058;-70
2023/10/16 13:20:28;;;;;;;1999.90;999.90;;;15.80;93.60;;;;;;4971002;28;20026;-70
2023/10/16 13:22:55;;;;;;;1999.90;999.90;;;15.90;92.50;;;;;;4954147;28;20087;-70
2023/10/16 13:25:23;;;;;;;1999.90;999.90;;;15.90;92.80;;;;;;4954061;28;20035;-70
2023/10/16 13:27:51;;;;;;;1999.90;999.90;;;15.80;92.70;;;;;;4955741;28;20047;-70
2023/10/16 13:30:18;;;;;;;1999.90;999.90;;;15.90;92.70;;;;;;4952504;28;20023;-69
2023/10/16 13:32:46;;;;;;;1999.90;999.90;;;15.90;92.90;;;;;;4965171;28;20046;-69
2023/10/16 13:35:16;;;;;;;1999.90;999.90;;;15.90;92.90;;;;;;4961972;28;20362;-70
2023/10/16 13:37:43;;;;;;;1999.90;999.90;;;15.80;93.00;;;;;;4965765;28;20055;-69
2023/10/16 13:40:28;;;;;;;1999.90;999.90;;;15.80;92.50;;;;;;4953760;28;20037;-69
2023/10/16 13:42:55;;;;;;;1999.90;999.90;;;15.80;92.80;;;;;;4960490;28;20037;-69
2023/10/16 13:45:22;;;;;;;1999.90;999.90;;;15.70;92.40;;;;;;4970875;28;20115;-69
2023/10/16 13:47:49;;;;;;;1999.90;999.90;;;15.70;92.50;;;;;;4957606;28;20046;-70
2023/10/16 13:50:24;;;;;;;1999.90;999.90;;;15.70;92.20;;;;;;4935285;29;20047;-69
2023/10/16 13:52:54;;;;;;;1999.90;999.90;;;15.70;92.50;;;;;;4953389;29;20039;-69
2023/10/16 13:55:22;;;;;;;1999.90;999.90;;;15.80;92.50;;;;;;4955425;28;20027;-69
2023/10/16 13:57:48;;;;;;;1999.90;999.90;;;15.80;92.50;;;;;;4968560;28;20059;-69
2023/10/16 14:03:07;;;;;;;1999.90;999.90;;;15.90;92.00;;;;;;4968009;28;20031;-70
2023/10/16 14:05:35;;;;;;;1999.90;999.90;;;15.90;92.50;;;;;;4972140;28;20042;-69
2023/10/16 14:08:03;;;;;;;1999.90;999.90;;;15.90;92.30;;;;;;4972061;28;20054;-70
2023/10/16 14:10:29;;;;;;;1999.90;999.90;;;16.00;92.90;;;;;;4970152;28;20377;-70
2023/10/16 14:13:10;;;;;;;1999.90;999.90;;;15.90;92.80;;;;;;4961059;28;20034;-70
2023/10/16 14:15:41;;;;;;;1999.90;999.90;;;16.00;92.70;;;;;;4972437;28;20051;-70
2023/10/16 14:18:14;;;;;;;1999.90;999.90;;;16.00;92.90;;;;;;4960086;28;20063;-70
2023/10/16 14:20:45;;;;;;;1999.90;999.90;;;15.90;92.70;;;;;;4957491;28;20491;-70
2023/10/16 14:23:13;;;;;;;1999.90;999.90;;;15.90;93.00;;;;;;4972986;28;20050;-70
2023/10/16 14:25:45;;;;;;;1999.90;999.90;;;15.90;93.00;;;;;;4968895;28;20034;-70
2023/10/16 14:31:11;;;;;;;1999.90;999.90;;;15.80;93.00;;;;;;4953917;28;20039;-70
2023/10/16 14:33:37;;;;;;;1999.90;999.90;;;15.70;93.00;;;;;;4965723;28;20054;-70
2023/10/16 14:36:10;;;;;;;1999.90;999.90;;;15.70;93.10;;;;;;4967052;28;20027;-70
2023/10/16 14:38:37;;;;;;;1999.90;999.90;;;15.60;93.00;;;;;;4964254;28;20039;-70
2023/10/16 14:41:17;;;;;;;1999.90;999.90;;;15.60;92.80;;;;;;4965154;28;20447;-70
2023/10/16 14:43:46;;;;;;;1999.90;999.90;;;15.60;93.10;;;;;;4960436;28;20042;-70
2023/10/16 14:46:13;;;;;;;1999.90;999.90;;;15.60;93.00;;;;;;4971816;28;20039;-71
2023/10/16 14:48:42;;;;;;;1999.90;999.90;;;15.60;93.10;;;;;;4972865;28;20035;-70
2023/10/16 14:51:13;;;;;;;1999.90;999.90;;;15.60;93.00;;;;;;4972666;28;20034;-71